sensor_id;sensor_type;location;lat;lon;timestamp;temperature;humidity
7566;DHT22;3824;48.010;7.832;2022-11-20T00:00:21;6.10;99.90
7566;DHT22;3824;48.010;7.832;2022-11-20T00:02:47;6.10;99.90
7566;DHT22;3824;48.010;7.832;2022-11-20T00:05:14;6.10;99.90
7566;DHT22;3824;48.010;7.832;2022-11-20T00:07:45;6.10;99.90
7566;DHT22;3824;48.010;7.832;2022-11-20T00:10:12;6.10;99.90
7566;DHT22;3824;48.010;7.832;2022-11-20T00:12:40;6.10;99.90
7566;DHT22;3824;48.010;7.832;2022-11-20T00:15:08;6.10;99.90
7566;DHT22;3824;48.010;7.832;2022-11-20T00:17:35;6.10;99.90
7566;DHT22;3824;48.010;7.832;2022-11-20T00:20:02;6.10;99.90
7566;DHT22;3824;48.010;7.832;2022-11-20T00:22:29;6.10;99.90
7566;DHT22;3824;48.010;7.832;2022-11-20T00:24:56;6.10;99.90
7566;DHT22;3824;48.010;7.832;2022-11-20T00:27:23;6.40;99.90
7566;DHT22;3824;48.010;7.832;2022-11-20T00:29:51;6.10;99.90
7566;DHT22;3824;48.010;7.832;2022-11-20T00:32:18;6.10;99.90
7566;DHT22;3824;48.010;7.832;2022-11-20T00:34:45;6.30;99.90
7566;DHT22;3824;48.010;7.832;2022-11-20T00:37:12;9.00;99.90
7566;DHT22;3824;48.010;7.832;2022-11-20T00:39:39;6.10;99.90
7566;DHT22;3824;48.010;7.832;2022-11-20T00:42:05;6.30;99.90
7566;DHT22;3824;48.010;7.832;2022-11-20T00:44:32;6.60;99.90
7566;DHT22;3824;48.010;7.832;2022-11-20T00:47:01;6.10;99.90
7566;DHT22;3824;48.010;7.832;2022-11-20T00:49:27;4.80;99.90
7566;DHT22;3824;48.010;7.832;2022-11-20T00:51:54;7.80;99.90
7566;DHT22;3824;48.010;7.832;2022-11-20T00:54:21;6.10;99.90
7566;DHT22;3824;48.010;7.832;2022-11-20T00:56:48;6.10;99.90
7566;DHT22;3824;48.010;7.832;2022-11-20T00:59:14;6.10;99.90
7566;DHT22;3824;48.010;7.832;2022-11-20T01:01:41;6.10;99.90
7566;DHT22;3824;48.010;7.832;2022-11-20T01:04:10;6.10;99.90
7566;DHT22;3824;48.010;7.832;2022-11-20T01:06:38;6.10;99.90
7566;DHT22;3824;48.010;7.832;2022-11-20T01:09:07;6.10;99.90
7566;DHT22;3824;48.010;7.832;2022-11-20T01:11:36;6.10;99.90
7566;DHT22;3824;48.010;7.832;2022-11-20T01:14:05;6.30;99.90
7566;DHT22;3824;48.010;7.832;2022-11-20T01:16:35;6.10;99.90
7566;DHT22;3824;48.010;7.832;2022-11-20T01:19:03;8.80;99.90
7566;DHT22;3824;48.010;7.832;2022-11-20T01:21:34;6.10;99.90
7566;DHT22;3824;48.010;7.832;2022-11-20T01:24:02;6.50;99.90
7566;DHT22;3824;48.010;7.832;2022-11-20T01:26:30;6.40;99.90
7566;DHT22;3824;48.010;7.832;2022-11-20T01:28:58;6.20;99.90
7566;DHT22;3824;48.010;7.832;2022-11-20T01:31:27;6.20;99.90
7566;DHT22;3824;48.010;7.832;2022-11-20T01:33:56;6.20;99.90
7566;DHT22;3824;48.010;7.832;2022-11-20T01:36:26;6.10;99.90
7566;DHT22;3824;48.010;7.832;2022-11-20T01:38:56;6.20;99.90
7566;DHT22;3824;48.010;7.832;2022-11-20T01:41:24;6.20;99.90
7566;DHT22;3824;48.010;7.832;2022-11-20T01:44:11;6.20;99.90
7566;DHT22;3824;48.010;7.832;2022-11-20T01:46:42;6.20;99.90
7566;DHT22;3824;48.010;7.832;2022-11-20T01:49:15;6.20;99.90
7566;DHT22;3824;48.010;7.832;2022-11-20T01:51:48;6.20;99.90
7566;DHT22;3824;48.010;7.832;2022-11-20T01:54:21;6.60;99.90
7566;DHT22;3824;48.010;7.832;2022-11-20T01:56:51;6.20;99.90
7566;DHT22;3824;48.010;7.832;2022-11-20T01:59:20;6.20;99.90
7566;DHT22;3824;48.010;7.832;2022-11-20T02:01:48;6.30;99.90
7566;DHT22;3824;48.010;7.832;2022-11-20T02:04:15;6.30;99.90
7566;DHT22;3824;48.010;7.832;2022-11-20T02:06:45;6.30;99.90
7566;DHT22;3824;48.010;7.832;2022-11-20T02:09:14;6.30;99.90
7566;DHT22;3824;48.010;7.832;2022-11-20T02:11:43;6.30;99.90
7566;DHT22;3824;48.010;7.832;2022-11-20T02:14:10;6.30;99.90
7566;DHT22;3824;48.010;7.832;2022-11-20T02:16:39;6.30;99.90
7566;DHT22;3824;48.010;7.832;2022-11-20T02:19:12;6.30;99.90
7566;DHT22;3824;48.010;7.832;2022-11-20T02:21:46;6.40;99.90
7566;DHT22;3824;48.010;7.832;2022-11-20T02:24:17;7.50;99.90
7566;DHT22;3824;48.010;7.832;2022-11-20T02:26:52;6.70;99.90
7566;DHT22;3824;48.010;7.832;2022-11-20T02:29:24;6.40;99.90
7566;DHT22;3824;48.010;7.832;2022-11-20T02:31:54;6.40;99.90
7566;DHT22;3824;48.010;7.832;2022-11-20T02:34:21;6.50;99.90
7566;DHT22;3824;48.010;7.832;2022-11-20T02:36:49;6.50;99.90
7566;DHT22;3824;48.010;7.832;2022-11-20T02:39:20;6.50;99.90
7566;DHT22;3824;48.010;7.832;2022-11-20T02:41:49;6.50;99.90
7566;DHT22;3824;48.010;7.832;2022-11-20T02:44:16;6.80;99.90
7566;DHT22;3824;48.010;7.832;2022-11-20T02:46:42;6.50;99.90
7566;DHT22;3824;48.010;7.832;2022-11-20T02:49:09;6.60;99.90
7566;DHT22;3824;48.010;7.832;2022-11-20T02:51:36;7.10;99.90
7566;DHT22;3824;48.010;7.832;2022-11-20T02:54:04;6.60;99.90
7566;DHT22;3824;48.010;7.832;2022-11-20T02:56:32;6.60;99.90
7566;DHT22;3824;48.010;7.832;2022-11-20T02:58:59;6.60;99.90
7566;DHT22;3824;48.010;7.832;2022-11-20T03:01:26;6.70;99.90
7566;DHT22;3824;48.010;7.832;2022-11-20T03:03:52;9.10;99.90
7566;DHT22;3824;48.010;7.832;2022-11-20T03:06:20;6.70;99.90
7566;DHT22;3824;48.010;7.832;2022-11-20T03:08:47;6.60;99.90
7566;DHT22;3824;48.010;7.832;2022-11-20T03:11:14;6.60;99.90
7566;DHT22;3824;48.010;7.832;2022-11-20T03:13:42;6.80;99.90
7566;DHT22;3824;48.010;7.832;2022-11-20T03:16:11;6.70;99.90
7566;DHT22;3824;48.010;7.832;2022-11-20T03:18:39;6.70;99.90
7566;DHT22;3824;48.010;7.832;2022-11-20T03:21:06;7.40;99.90
7566;DHT22;3824;48.010;7.832;2022-11-20T03:23:33;6.70;99.90
7566;DHT22;3824;48.010;7.832;2022-11-20T03:26:08;6.70;99.90
7566;DHT22;3824;48.010;7.832;2022-11-20T03:28:35;6.70;99.90
7566;DHT22;3824;48.010;7.832;2022-11-20T03:31:07;6.80;99.90
7566;DHT22;3824;48.010;7.832;2022-11-20T03:33:34;6.80;99.90
7566;DHT22;3824;48.010;7.832;2022-11-20T03:36:02;6.80;99.90
7566;DHT22;3824;48.010;7.832;2022-11-20T03:38:29;6.80;99.90
7566;DHT22;3824;48.010;7.832;2022-11-20T03:40:59;6.80;99.90
7566;DHT22;3824;48.010;7.832;2022-11-20T03:43:26;9.20;99.90
7566;DHT22;3824;48.010;7.832;2022-11-20T03:45:53;6.90;99.90
7566;DHT22;3824;48.010;7.832;2022-11-20T03:48:21;6.90;99.90
7566;DHT22;3824;48.010;7.832;2022-11-20T03:50:48;6.90;99.90
7566;DHT22;3824;48.010;7.832;2022-11-20T03:53:15;6.90;99.90
7566;DHT22;3824;48.010;7.832;2022-11-20T03:55:42;6.90;99.90
7566;DHT22;3824;48.010;7.832;2022-11-20T03:58:09;7.00;99.90
7566;DHT22;3824;48.010;7.832;2022-11-20T04:00:36;7.00;99.90
7566;DHT22;3824;48.010;7.832;2022-11-20T04:03:03;7.00;99.90
7566;DHT22;3824;48.010;7.832;2022-11-20T04:05:33;7.00;99.90
7566;DHT22;3824;48.010;7.832;2022-11-20T04:08:00;7.00;99.90
7566;DHT22;3824;48.010;7.832;2022-11-20T04:10:27;7.00;99.90
7566;DHT22;3824;48.010;7.832;2022-11-20T04:12:54;7.00;99.90
7566;DHT22;3824;48.010;7.832;2022-11-20T04:15:20;6.90;99.90
7566;DHT22;3824;48.010;7.832;2022-11-20T04:17:47;7.00;99.90
7566;DHT22;3824;48.010;7.832;2022-11-20T04:20:14;7.00;99.90
7566;DHT22;3824;48.010;7.832;2022-11-20T04:22:42;7.70;99.90
7566;DHT22;3824;48.010;7.832;2022-11-20T04:25:09;7.00;99.90
7566;DHT22;3824;48.010;7.832;2022-11-20T04:27:36;7.00;99.90
7566;DHT22;3824;48.010;7.832;2022-11-20T04:30:03;7.00;99.90
7566;DHT22;3824;48.010;7.832;2022-11-20T04:32:30;7.00;99.90
7566;DHT22;3824;48.010;7.832;2022-11-20T04:34:57;7.00;99.90
7566;DHT22;3824;48.010;7.832;2022-11-20T04:37:24;7.00;99.90
7566;DHT22;3824;48.010;7.832;2022-11-20T04:39:52;7.00;99.90
7566;DHT22;3824;48.010;7.832;2022-11-20T04:42:18;8.00;99.90
7566;DHT22;3824;48.010;7.832;2022-11-20T04:44:57;7.00;99.90
7566;DHT22;3824;48.010;7.832;2022-11-20T04:47:24;7.00;99.90
7566;DHT22;3824;48.010;7.832;2022-11-20T04:49:51;7.80;99.90
7566;DHT22;3824;48.010;7.832;2022-11-20T04:52:18;7.00;99.90
7566;DHT22;3824;48.010;7.832;2022-11-20T04:54:44;6.90;99.90
7566;DHT22;3824;48.010;7.832;2022-11-20T04:57:14;6.90;99.90
7566;DHT22;3824;48.010;7.832;2022-11-20T04:59:41;6.90;99.90
7566;DHT22;3824;48.010;7.832;2022-11-20T05:02:09;6.90;99.90
7566;DHT22;3824;48.010;7.832;2022-11-20T05:04:36;6.90;99.90
7566;DHT22;3824;48.010;7.832;2022-11-20T05:07:02;6.90;99.90
7566;DHT22;3824;48.010;7.832;2022-11-20T05:09:30;6.90;99.90
7566;DHT22;3824;48.010;7.832;2022-11-20T05:11:57;6.90;99.90
7566;DHT22;3824;48.010;7.832;2022-11-20T05:14:25;6.90;99.90
7566;DHT22;3824;48.010;7.832;2022-11-20T05:16:51;7.80;99.90
7566;DHT22;3824;48.010;7.832;2022-11-20T05:19:18;6.90;99.90
7566;DHT22;3824;48.010;7.832;2022-11-20T05:21:45;6.90;99.90
7566;DHT22;3824;48.010;7.832;2022-11-20T05:24:12;6.90;99.90
7566;DHT22;3824;48.010;7.832;2022-11-20T05:26:39;6.90;99.90
7566;DHT22;3824;48.010;7.832;2022-11-20T05:29:05;6.90;99.90
7566;DHT22;3824;48.010;7.832;2022-11-20T05:31:33;6.90;99.90
7566;DHT22;3824;48.010;7.832;2022-11-20T05:34:01;7.60;99.90
7566;DHT22;3824;48.010;7.832;2022-11-20T05:36:28;6.90;99.90
7566;DHT22;3824;48.010;7.832;2022-11-20T05:38:56;7.90;99.90
7566;DHT22;3824;48.010;7.832;2022-11-20T05:41:23;6.90;99.90
7566;DHT22;3824;48.010;7.832;2022-11-20T05:43:50;7.10;99.90
7566;DHT22;3824;48.010;7.832;2022-11-20T05:46:19;6.90;99.90
7566;DHT22;3824;48.010;7.832;2022-11-20T05:48:48;6.90;99.90
7566;DHT22;3824;48.010;7.832;2022-11-20T05:51:16;7.00;99.90
7566;DHT22;3824;48.010;7.832;2022-11-20T05:53:43;7.60;99.90
7566;DHT22;3824;48.010;7.832;2022-11-20T05:56:11;6.90;99.90
7566;DHT22;3824;48.010;7.832;2022-11-20T05:58:39;6.90;99.90
7566;DHT22;3824;48.010;7.832;2022-11-20T06:01:08;6.90;99.90
7566;DHT22;3824;48.010;7.832;2022-11-20T06:03:35;6.90;99.90
7566;DHT22;3824;48.010;7.832;2022-11-20T06:06:05;6.90;99.90
7566;DHT22;3824;48.010;7.832;2022-11-20T06:08:32;6.90;99.90
7566;DHT22;3824;48.010;7.832;2022-11-20T06:11:03;6.90;99.90
7566;DHT22;3824;48.010;7.832;2022-11-20T06:13:30;6.90;99.90
7566;DHT22;3824;48.010;7.832;2022-11-20T06:15:57;6.90;99.90
7566;DHT22;3824;48.010;7.832;2022-11-20T06:18:26;6.90;99.90
7566;DHT22;3824;48.010;7.832;2022-11-20T06:20:59;6.90;99.90
7566;DHT22;3824;48.010;7.832;2022-11-20T06:23:29;7.00;99.90
7566;DHT22;3824;48.010;7.832;2022-11-20T06:25:56;6.80;99.90
7566;DHT22;3824;48.010;7.832;2022-11-20T06:28:23;6.80;99.90
7566;DHT22;3824;48.010;7.832;2022-11-20T06:30:50;6.80;99.90
7566;DHT22;3824;48.010;7.832;2022-11-20T06:33:16;6.80;99.90
7566;DHT22;3824;48.010;7.832;2022-11-20T06:35:43;6.80;99.90
7566;DHT22;3824;48.010;7.832;2022-11-20T06:38:10;6.80;99.90
7566;DHT22;3824;48.010;7.832;2022-11-20T06:40:41;6.80;99.90
7566;DHT22;3824;48.010;7.832;2022-11-20T06:43:08;6.70;99.90
7566;DHT22;3824;48.010;7.832;2022-11-20T06:45:35;6.70;99.90
7566;DHT22;3824;48.010;7.832;2022-11-20T06:48:02;6.70;99.90
7566;DHT22;3824;48.010;7.832;2022-11-20T06:50:29;6.70;99.90
7566;DHT22;3824;48.010;7.832;2022-11-20T06:52:56;6.90;99.90
7566;DHT22;3824;48.010;7.832;2022-11-20T06:55:23;6.70;99.90
7566;DHT22;3824;48.010;7.832;2022-11-20T06:57:51;7.60;99.90
7566;DHT22;3824;48.010;7.832;2022-11-20T07:00:18;7.20;99.90
7566;DHT22;3824;48.010;7.832;2022-11-20T07:02:45;6.70;99.90
7566;DHT22;3824;48.010;7.832;2022-11-20T07:05:12;6.70;99.90
7566;DHT22;3824;48.010;7.832;2022-11-20T07:07:39;6.70;99.90
7566;DHT22;3824;48.010;7.832;2022-11-20T07:10:06;6.70;99.90
7566;DHT22;3824;48.010;7.832;2022-11-20T07:12:33;6.70;99.90
7566;DHT22;3824;48.010;7.832;2022-11-20T07:15:01;6.70;99.90
7566;DHT22;3824;48.010;7.832;2022-11-20T07:17:28;6.80;99.90
7566;DHT22;3824;48.010;7.832;2022-11-20T07:19:54;6.80;99.90
7566;DHT22;3824;48.010;7.832;2022-11-20T07:22:21;6.80;99.90
7566;DHT22;3824;48.010;7.832;2022-11-20T07:24:48;6.90;99.90
7566;DHT22;3824;48.010;7.832;2022-11-20T07:27:15;6.80;99.90
7566;DHT22;3824;48.010;7.832;2022-11-20T07:29:42;6.90;99.90
7566;DHT22;3824;48.010;7.832;2022-11-20T07:32:10;6.90;99.90
7566;DHT22;3824;48.010;7.832;2022-11-20T07:34:37;6.90;99.90
7566;DHT22;3824;48.010;7.832;2022-11-20T07:37:03;6.90;99.90
7566;DHT22;3824;48.010;7.832;2022-11-20T07:39:30;7.00;99.90
7566;DHT22;3824;48.010;7.832;2022-11-20T07:41:57;7.00;99.90
7566;DHT22;3824;48.010;7.832;2022-11-20T07:44:24;7.10;99.90
7566;DHT22;3824;48.010;7.832;2022-11-20T07:46:51;7.10;99.90
7566;DHT22;3824;48.010;7.832;2022-11-20T07:49:19;7.10;99.90
7566;DHT22;3824;48.010;7.832;2022-11-20T07:51:46;7.00;99.90
7566;DHT22;3824;48.010;7.832;2022-11-20T07:54:13;7.00;99.90
7566;DHT22;3824;48.010;7.832;2022-11-20T07:56:39;7.00;99.90
7566;DHT22;3824;48.010;7.832;2022-11-20T07:59:06;7.00;99.90
7566;DHT22;3824;48.010;7.832;2022-11-20T08:01:33;7.10;99.90
7566;DHT22;3824;48.010;7.832;2022-11-20T08:04:00;7.00;99.90
7566;DHT22;3824;48.010;7.832;2022-11-20T08:06:28;6.90;99.90
7566;DHT22;3824;48.010;7.832;2022-11-20T08:08:55;6.90;99.90
7566;DHT22;3824;48.010;7.832;2022-11-20T08:11:21;6.90;99.90
7566;DHT22;3824;48.010;7.832;2022-11-20T08:14:06;6.90;99.90
7566;DHT22;3824;48.010;7.832;2022-11-20T08:16:43;6.90;99.90
7566;DHT22;3824;48.010;7.832;2022-11-20T08:19:10;7.40;99.90
7566;DHT22;3824;48.010;7.832;2022-11-20T08:21:39;6.80;99.90
7566;DHT22;3824;48.010;7.832;2022-11-20T08:24:06;6.80;99.90
7566;DHT22;3824;48.010;7.832;2022-11-20T08:26:34;6.80;99.90
7566;DHT22;3824;48.010;7.832;2022-11-20T08:29:01;6.80;99.90
7566;DHT22;3824;48.010;7.832;2022-11-20T08:31:28;6.80;99.90
7566;DHT22;3824;48.010;7.832;2022-11-20T08:33:55;7.40;99.90
7566;DHT22;3824;48.010;7.832;2022-11-20T08:36:22;6.80;99.90
7566;DHT22;3824;48.010;7.832;2022-11-20T08:38:52;6.90;99.90
7566;DHT22;3824;48.010;7.832;2022-11-20T08:41:19;6.90;99.90
7566;DHT22;3824;48.010;7.832;2022-11-20T08:43:54;6.90;99.90
7566;DHT22;3824;48.010;7.832;2022-11-20T08:46:21;7.00;99.90
7566;DHT22;3824;48.010;7.832;2022-11-20T08:48:48;7.00;99.90
7566;DHT22;3824;48.010;7.832;2022-11-20T08:51:15;7.00;99.90
7566;DHT22;3824;48.010;7.832;2022-11-20T08:53:42;7.10;99.90
7566;DHT22;3824;48.010;7.832;2022-11-20T08:56:11;7.10;99.90
7566;DHT22;3824;48.010;7.832;2022-11-20T08:58:38;7.10;99.90
7566;DHT22;3824;48.010;7.832;2022-11-20T09:01:05;7.20;99.90
7566;DHT22;3824;48.010;7.832;2022-11-20T09:03:32;7.50;99.90
7566;DHT22;3824;48.010;7.832;2022-11-20T09:05:59;7.20;99.90
7566;DHT22;3824;48.010;7.832;2022-11-20T09:08:27;7.20;99.90
7566;DHT22;3824;48.010;7.832;2022-11-20T09:10:55;7.20;99.90
7566;DHT22;3824;48.010;7.832;2022-11-20T09:13:24;7.30;99.90
7566;DHT22;3824;48.010;7.832;2022-11-20T09:15:53;7.40;99.90
7566;DHT22;3824;48.010;7.832;2022-11-20T09:18:20;7.30;99.90
7566;DHT22;3824;48.010;7.832;2022-11-20T09:20:48;7.30;99.90
7566;DHT22;3824;48.010;7.832;2022-11-20T09:23:15;7.30;99.90
7566;DHT22;3824;48.010;7.832;2022-11-20T09:25:42;7.40;99.90
7566;DHT22;3824;48.010;7.832;2022-11-20T09:28:09;7.40;99.90
7566;DHT22;3824;48.010;7.832;2022-11-20T09:30:37;7.40;99.90
7566;DHT22;3824;48.010;7.832;2022-11-20T09:33:04;7.40;99.90
7566;DHT22;3824;48.010;7.832;2022-11-20T09:35:32;7.40;99.90
7566;DHT22;3824;48.010;7.832;2022-11-20T09:38:03;7.40;99.90
7566;DHT22;3824;48.010;7.832;2022-11-20T09:40:30;7.50;99.90
7566;DHT22;3824;48.010;7.832;2022-11-20T09:43:00;7.50;99.90
7566;DHT22;3824;48.010;7.832;2022-11-20T09:45:38;7.50;99.90
7566;DHT22;3824;48.010;7.832;2022-11-20T09:48:20;7.60;99.90
7566;DHT22;3824;48.010;7.832;2022-11-20T09:50:55;7.70;99.90
7566;DHT22;3824;48.010;7.832;2022-11-20T09:53:28;7.70;99.90
7566;DHT22;3824;48.010;7.832;2022-11-20T09:55:57;7.90;99.90
7566;DHT22;3824;48.010;7.832;2022-11-20T09:58:32;7.90;99.90
7566;DHT22;3824;48.010;7.832;2022-11-20T10:01:09;8.00;99.90
7566;DHT22;3824;48.010;7.832;2022-11-20T10:03:42;8.20;99.90
7566;DHT22;3824;48.010;7.832;2022-11-20T10:06:15;8.10;99.90
7566;DHT22;3824;48.010;7.832;2022-11-20T10:08:46;8.10;99.90
7566;DHT22;3824;48.010;7.832;2022-11-20T10:11:21;8.50;99.90
7566;DHT22;3824;48.010;7.832;2022-11-20T10:13:59;8.20;99.90
7566;DHT22;3824;48.010;7.832;2022-11-20T10:16:39;8.20;99.90
7566;DHT22;3824;48.010;7.832;2022-11-20T10:19:24;8.30;99.90
7566;DHT22;3824;48.010;7.832;2022-11-20T10:22:01;8.30;99.90
7566;DHT22;3824;48.010;7.832;2022-11-20T10:27:33;8.40;99.90
7566;DHT22;3824;48.010;7.832;2022-11-20T10:30:08;8.30;99.90
7566;DHT22;3824;48.010;7.832;2022-11-20T10:32:39;8.30;99.90
7566;DHT22;3824;48.010;7.832;2022-11-20T10:35:16;8.30;99.90
7566;DHT22;3824;48.010;7.832;2022-11-20T10:37:47;8.30;99.90
7566;DHT22;3824;48.010;7.832;2022-11-20T10:40:21;8.30;99.90
7566;DHT22;3824;48.010;7.832;2022-11-20T10:42:52;8.30;99.90
7566;DHT22;3824;48.010;7.832;2022-11-20T10:45:36;8.30;99.90
7566;DHT22;3824;48.010;7.832;2022-11-20T10:48:15;8.40;99.90
7566;DHT22;3824;48.010;7.832;2022-11-20T10:53:48;8.60;99.90
7566;DHT22;3824;48.010;7.832;2022-11-20T10:56:20;8.60;99.90
7566;DHT22;3824;48.010;7.832;2022-11-20T10:59:04;8.70;99.90
7566;DHT22;3824;48.010;7.832;2022-11-20T11:01:40;8.70;99.90
7566;DHT22;3824;48.010;7.832;2022-11-20T11:04:21;8.80;99.90
7566;DHT22;3824;48.010;7.832;2022-11-20T11:06:51;8.80;99.90
7566;DHT22;3824;48.010;7.832;2022-11-20T11:09:24;8.90;99.90
7566;DHT22;3824;48.010;7.832;2022-11-20T11:11:53;9.00;99.90
7566;DHT22;3824;48.010;7.832;2022-11-20T11:14:20;9.00;99.90
7566;DHT22;3824;48.010;7.832;2022-11-20T11:16:50;9.00;99.90
7566;DHT22;3824;48.010;7.832;2022-11-20T11:19:19;9.00;99.90
7566;DHT22;3824;48.010;7.832;2022-11-20T11:21:47;9.00;99.90
7566;DHT22;3824;48.010;7.832;2022-11-20T11:24:20;9.20;99.90
7566;DHT22;3824;48.010;7.832;2022-11-20T11:26:53;9.20;99.90
7566;DHT22;3824;48.010;7.832;2022-11-20T11:29:21;9.20;99.90
7566;DHT22;3824;48.010;7.832;2022-11-20T11:31:49;9.20;99.90
7566;DHT22;3824;48.010;7.832;2022-11-20T11:34:18;9.30;99.90
7566;DHT22;3824;48.010;7.832;2022-11-20T11:36:52;9.20;99.90
7566;DHT22;3824;48.010;7.832;2022-11-20T11:39:21;9.20;99.90
7566;DHT22;3824;48.010;7.832;2022-11-20T11:41:49;9.30;99.90
7566;DHT22;3824;48.010;7.832;2022-11-20T11:44:18;9.30;99.90
7566;DHT22;3824;48.010;7.832;2022-11-20T11:47:04;9.30;99.90
7566;DHT22;3824;48.010;7.832;2022-11-20T11:49:33;9.30;99.90
7566;DHT22;3824;48.010;7.832;2022-11-20T11:52:04;9.30;99.90
7566;DHT22;3824;48.010;7.832;2022-11-20T11:54:38;9.40;99.90
7566;DHT22;3824;48.010;7.832;2022-11-20T11:57:12;9.50;99.90
7566;DHT22;3824;48.010;7.832;2022-11-20T11:59:59;9.40;99.90
7566;DHT22;3824;48.010;7.832;2022-11-20T12:02:36;9.30;99.90
7566;DHT22;3824;48.010;7.832;2022-11-20T12:05:16;9.40;99.90
7566;DHT22;3824;48.010;7.832;2022-11-20T12:07:47;9.30;99.90
7566;DHT22;3824;48.010;7.832;2022-11-20T12:10:18;9.30;99.90
7566;DHT22;3824;48.010;7.832;2022-11-20T12:12:50;9.50;99.90
7566;DHT22;3824;48.010;7.832;2022-11-20T12:15:25;9.50;99.90
7566;DHT22;3824;48.010;7.832;2022-11-20T12:17:53;9.50;99.90
7566;DHT22;3824;48.010;7.832;2022-11-20T12:20:24;9.60;99.90
7566;DHT22;3824;48.010;7.832;2022-11-20T12:22:55;9.60;99.90
7566;DHT22;3824;48.010;7.832;2022-11-20T12:25:26;9.60;99.90
7566;DHT22;3824;48.010;7.832;2022-11-20T12:28:31;9.70;99.90
7566;DHT22;3824;48.010;7.832;2022-11-20T12:31:14;9.80;99.90
7566;DHT22;3824;48.010;7.832;2022-11-20T12:34:09;9.90;99.90
7566;DHT22;3824;48.010;7.832;2022-11-20T12:36:45;9.90;99.90
7566;DHT22;3824;48.010;7.832;2022-11-20T12:39:34;10.00;99.90
7566;DHT22;3824;48.010;7.832;2022-11-20T12:42:17;10.10;99.90
7566;DHT22;3824;48.010;7.832;2022-11-20T12:45:14;10.20;99.90
7566;DHT22;3824;48.010;7.832;2022-11-20T12:47:59;10.30;99.90
7566;DHT22;3824;48.010;7.832;2022-11-20T12:50:37;10.40;99.90
7566;DHT22;3824;48.010;7.832;2022-11-20T12:53:10;10.40;99.90
7566;DHT22;3824;48.010;7.832;2022-11-20T12:55:49;10.50;99.90
7566;DHT22;3824;48.010;7.832;2022-11-20T12:58:23;10.60;99.90
7566;DHT22;3824;48.010;7.832;2022-11-20T13:00:58;10.60;99.90
7566;DHT22;3824;48.010;7.832;2022-11-20T13:03:38;10.50;99.90
7566;DHT22;3824;48.010;7.832;2022-11-20T13:06:13;10.40;99.90
7566;DHT22;3824;48.010;7.832;2022-11-20T13:08:47;10.20;99.90
7566;DHT22;3824;48.010;7.832;2022-11-20T13:11:18;10.00;99.90
7566;DHT22;3824;48.010;7.832;2022-11-20T13:14:04;10.00;99.90
7566;DHT22;3824;48.010;7.832;2022-11-20T13:16:37;10.00;99.90
7566;DHT22;3824;48.010;7.832;2022-11-20T13:19:11;10.00;99.90
7566;DHT22;3824;48.010;7.832;2022-11-20T13:21:40;10.00;99.90
7566;DHT22;3824;48.010;7.832;2022-11-20T13:24:22;9.90;99.90
7566;DHT22;3824;48.010;7.832;2022-11-20T13:27:00;9.80;99.90
7566;DHT22;3824;48.010;7.832;2022-11-20T13:29:27;9.70;99.90
7566;DHT22;3824;48.010;7.832;2022-11-20T13:32:03;9.60;99.90
7566;DHT22;3824;48.010;7.832;2022-11-20T13:34:31;9.60;99.90
7566;DHT22;3824;48.010;7.832;2022-11-20T13:36:59;9.70;99.90
7566;DHT22;3824;48.010;7.832;2022-11-20T13:39:31;9.60;99.90
7566;DHT22;3824;48.010;7.832;2022-11-20T13:42:00;9.60;99.90
7566;DHT22;3824;48.010;7.832;2022-11-20T13:44:33;9.60;99.90
7566;DHT22;3824;48.010;7.832;2022-11-20T13:47:02;9.60;99.90
7566;DHT22;3824;48.010;7.832;2022-11-20T13:49:31;9.60;99.90
7566;DHT22;3824;48.010;7.832;2022-11-20T13:52:08;9.60;99.90
7566;DHT22;3824;48.010;7.832;2022-11-20T13:55:02;9.60;99.90
7566;DHT22;3824;48.010;7.832;2022-11-20T14:00:27;9.60;99.90
7566;DHT22;3824;48.010;7.832;2022-11-20T14:03:01;9.70;99.90
7566;DHT22;3824;48.010;7.832;2022-11-20T14:05:31;9.70;99.90
7566;DHT22;3824;48.010;7.832;2022-11-20T14:08:03;9.80;99.90
7566;DHT22;3824;48.010;7.832;2022-11-20T14:10:32;9.80;99.90
7566;DHT22;3824;48.010;7.832;2022-11-20T14:13:10;9.80;99.90
7566;DHT22;3824;48.010;7.832;2022-11-20T14:15:37;9.70;99.90
7566;DHT22;3824;48.010;7.832;2022-11-20T14:18:12;9.60;99.90
7566;DHT22;3824;48.010;7.832;2022-11-20T14:20:40;9.50;99.90
7566;DHT22;3824;48.010;7.832;2022-11-20T14:23:09;9.40;99.90
7566;DHT22;3824;48.010;7.832;2022-11-20T14:25:42;9.30;99.90
7566;DHT22;3824;48.010;7.832;2022-11-20T14:28:11;9.20;99.90
7566;DHT22;3824;48.010;7.832;2022-11-20T14:30:47;9.40;99.90
7566;DHT22;3824;48.010;7.832;2022-11-20T14:33:15;9.10;99.90
7566;DHT22;3824;48.010;7.832;2022-11-20T14:35:45;9.10;99.90
7566;DHT22;3824;48.010;7.832;2022-11-20T14:38:15;9.20;99.90
7566;DHT22;3824;48.010;7.832;2022-11-20T14:40:44;9.00;99.90
7566;DHT22;3824;48.010;7.832;2022-11-20T14:43:19;9.00;99.90
7566;DHT22;3824;48.010;7.832;2022-11-20T14:45:52;8.80;99.90
7566;DHT22;3824;48.010;7.832;2022-11-20T14:48:24;8.80;99.90
7566;DHT22;3824;48.010;7.832;2022-11-20T14:50:52;8.80;99.90
7566;DHT22;3824;48.010;7.832;2022-11-20T14:53:22;8.80;99.90
7566;DHT22;3824;48.010;7.832;2022-11-20T14:55:57;8.80;99.90
7566;DHT22;3824;48.010;7.832;2022-11-20T14:58:26;8.70;99.90
7566;DHT22;3824;48.010;7.832;2022-11-20T15:00:55;8.70;99.90
7566;DHT22;3824;48.010;7.832;2022-11-20T15:03:22;8.60;99.90
7566;DHT22;3824;48.010;7.832;2022-11-20T15:05:50;8.60;99.90
7566;DHT22;3824;48.010;7.832;2022-11-20T15:08:17;8.50;99.90
7566;DHT22;3824;48.010;7.832;2022-11-20T15:10:47;8.50;99.90
7566;DHT22;3824;48.010;7.832;2022-11-20T15:13:23;8.50;99.90
7566;DHT22;3824;48.010;7.832;2022-11-20T15:15:53;8.50;99.90
7566;DHT22;3824;48.010;7.832;2022-11-20T15:18:22;8.40;99.90
7566;DHT22;3824;48.010;7.832;2022-11-20T15:20:50;8.40;99.90
7566;DHT22;3824;48.010;7.832;2022-11-20T15:23:18;8.30;99.90
7566;DHT22;3824;48.010;7.832;2022-11-20T15:25:46;8.30;99.90
7566;DHT22;3824;48.010;7.832;2022-11-20T15:28:18;8.30;99.90
7566;DHT22;3824;48.010;7.832;2022-11-20T15:30:46;8.30;99.90
7566;DHT22;3824;48.010;7.832;2022-11-20T15:33:14;8.30;99.90
7566;DHT22;3824;48.010;7.832;2022-11-20T15:35:41;8.20;99.90
7566;DHT22;3824;48.010;7.832;2022-11-20T15:38:08;8.20;99.90
7566;DHT22;3824;48.010;7.832;2022-11-20T15:40:35;8.30;99.90
7566;DHT22;3824;48.010;7.832;2022-11-20T15:43:01;8.20;99.90
7566;DHT22;3824;48.010;7.832;2022-11-20T15:45:38;8.10;99.90
7566;DHT22;3824;48.010;7.832;2022-11-20T15:48:09;8.10;99.90
7566;DHT22;3824;48.010;7.832;2022-11-20T15:50:39;8.10;99.90
7566;DHT22;3824;48.010;7.832;2022-11-20T15:53:09;8.10;99.90
7566;DHT22;3824;48.010;7.832;2022-11-20T15:55:36;8.00;99.90
7566;DHT22;3824;48.010;7.832;2022-11-20T15:58:03;8.00;99.90
7566;DHT22;3824;48.010;7.832;2022-11-20T16:00:30;8.00;99.90
7566;DHT22;3824;48.010;7.832;2022-11-20T16:02:58;8.00;99.90
7566;DHT22;3824;48.010;7.832;2022-11-20T16:05:28;8.00;99.90
7566;DHT22;3824;48.010;7.832;2022-11-20T16:07:56;8.00;99.90
7566;DHT22;3824;48.010;7.832;2022-11-20T16:10:23;8.00;99.90
7566;DHT22;3824;48.010;7.832;2022-11-20T16:12:50;8.10;99.90
7566;DHT22;3824;48.010;7.832;2022-11-20T16:15:34;8.10;99.90
7566;DHT22;3824;48.010;7.832;2022-11-20T16:18:16;8.10;99.90
7566;DHT22;3824;48.010;7.832;2022-11-20T16:20:46;8.20;99.90
7566;DHT22;3824;48.010;7.832;2022-11-20T16:23:13;8.10;99.90
7566;DHT22;3824;48.010;7.832;2022-11-20T16:25:41;9.60;99.90
7566;DHT22;3824;48.010;7.832;2022-11-20T16:28:08;8.10;99.90
7566;DHT22;3824;48.010;7.832;2022-11-20T16:30:35;8.10;99.90
7566;DHT22;3824;48.010;7.832;2022-11-20T16:33:03;8.10;99.90
7566;DHT22;3824;48.010;7.832;2022-11-20T16:35:31;8.10;99.90
7566;DHT22;3824;48.010;7.832;2022-11-20T16:37:58;8.10;99.90
7566;DHT22;3824;48.010;7.832;2022-11-20T16:40:25;8.10;99.90
7566;DHT22;3824;48.010;7.832;2022-11-20T16:42:52;8.10;99.90